sensor_id;sensor_type;location;lat;lon;timestamp;temperature;humidity
20574;DHT22;10445;50.216;7.912;2023-10-31T00:01:08;10.30;99.90
20574;DHT22;10445;50.216;7.912;2023-10-31T00:03:38;10.30;99.90
20574;DHT22;10445;50.216;7.912;2023-10-31T00:06:07;10.30;99.90
20574;DHT22;10445;50.216;7.912;2023-10-31T00:08:35;10.20;99.90
20574;DHT22;10445;50.216;7.912;2023-10-31T00:11:04;10.20;99.90
20574;DHT22;10445;50.216;7.912;2023-10-31T00:13:32;10.20;99.90
20574;DHT22;10445;50.216;7.912;2023-10-31T00:16:01;10.10;99.90
20574;DHT22;10445;50.216;7.912;2023-10-31T00:18:29;10.10;99.90
20574;DHT22;10445;50.216;7.912;2023-10-31T00:20:59;10.10;99.90
20574;DHT22;10445;50.216;7.912;2023-10-31T00:23:27;10.10;99.90
20574;DHT22;10445;50.216;7.912;2023-10-31T00:25:56;10.10;99.90
20574;DHT22;10445;50.216;7.912;2023-10-31T00:28:24;10.00;99.90
20574;DHT22;10445;50.216;7.912;2023-10-31T00:30:52;10.00;99.90
20574;DHT22;10445;50.216;7.912;2023-10-31T00:33:22;10.00;99.90
20574;DHT22;10445;50.216;7.912;2023-10-31T00:35:50;10.00;99.90
20574;DHT22;10445;50.216;7.912;2023-10-31T00:38:20;9.90;99.90
20574;DHT22;10445;50.216;7.912;2023-10-31T00:40:48;9.90;99.90
20574;DHT22;10445;50.216;7.912;2023-10-31T00:43:16;9.90;99.90
20574;DHT22;10445;50.216;7.912;2023-10-31T00:45:45;9.90;99.90
20574;DHT22;10445;50.216;7.912;2023-10-31T00:48:13;9.90;99.90
20574;DHT22;10445;50.216;7.912;2023-10-31T00:50:43;9.80;99.90
20574;DHT22;10445;50.216;7.912;2023-10-31T00:53:11;9.80;99.90
20574;DHT22;10445;50.216;7.912;2023-10-31T00:55:43;9.80;99.90
20574;DHT22;10445;50.216;7.912;2023-10-31T00:58:12;9.80;99.90
20574;DHT22;10445;50.216;7.912;2023-10-31T01:00:40;9.80;99.90
20574;DHT22;10445;50.216;7.912;2023-10-31T01:03:08;9.80;99.90
20574;DHT22;10445;50.216;7.912;2023-10-31T01:05:37;9.80;99.90
20574;DHT22;10445;50.216;7.912;2023-10-31T01:08:06;9.70;99.90
20574;DHT22;10445;50.216;7.912;2023-10-31T01:10:35;9.70;99.90
20574;DHT22;10445;50.216;7.912;2023-10-31T01:13:15;9.70;99.90
20574;DHT22;10445;50.216;7.912;2023-10-31T01:15:43;9.60;99.90
20574;DHT22;10445;50.216;7.912;2023-10-31T07:47:16;9.30;99.90
20574;DHT22;10445;50.216;7.912;2023-10-31T07:49:45;9.20;99.90
20574;DHT22;10445;50.216;7.912;2023-10-31T07:52:15;9.20;99.90
20574;DHT22;10445;50.216;7.912;2023-10-31T07:54:43;9.30;99.90
20574;DHT22;10445;50.216;7.912;2023-10-31T07:57:11;9.30;99.90
20574;DHT22;10445;50.216;7.912;2023-10-31T07:59:40;9.30;99.90
20574;DHT22;10445;50.216;7.912;2023-10-31T08:02:08;9.30;99.90
20574;DHT22;10445;50.216;7.912;2023-10-31T08:04:39;9.30;99.90
20574;DHT22;10445;50.216;7.912;2023-10-31T08:07:08;9.30;99.90
20574;DHT22;10445;50.216;7.912;2023-10-31T08:09:37;9.30;99.90
20574;DHT22;10445;50.216;7.912;2023-10-31T08:12:06;9.30;99.90
20574;DHT22;10445;50.216;7.912;2023-10-31T08:14:35;9.30;99.90
20574;DHT22;10445;50.216;7.912;2023-10-31T08:17:03;9.30;99.90
20574;DHT22;10445;50.216;7.912;2023-10-31T08:19:32;9.30;99.90
20574;DHT22;10445;50.216;7.912;2023-10-31T08:22:02;9.30;99.90
20574;DHT22;10445;50.216;7.912;2023-10-31T08:24:30;9.30;99.90
20574;DHT22;10445;50.216;7.912;2023-10-31T08:26:58;9.30;99.90
20574;DHT22;10445;50.216;7.912;2023-10-31T08:29:27;9.30;99.90
20574;DHT22;10445;50.216;7.912;2023-10-31T08:31:55;9.40;99.90
20574;DHT22;10445;50.216;7.912;2023-10-31T08:34:24;9.40;99.90
20574;DHT22;10445;50.216;7.912;2023-10-31T08:36:52;9.40;99.90
20574;DHT22;10445;50.216;7.912;2023-10-31T08:39:25;9.40;99.90
20574;DHT22;10445;50.216;7.912;2023-10-31T08:41:54;9.40;99.90
20574;DHT22;10445;50.216;7.912;2023-10-31T08:44:23;9.50;99.90
20574;DHT22;10445;50.216;7.912;2023-10-31T08:46:52;9.50;99.90
20574;DHT22;10445;50.216;7.912;2023-10-31T08:49:20;9.50;99.90
20574;DHT22;10445;50.216;7.912;2023-10-31T08:51:48;9.60;99.90
20574;DHT22;10445;50.216;7.912;2023-10-31T08:54:17;9.60;99.90
20574;DHT22;10445;50.216;7.912;2023-10-31T08:56:47;9.60;99.90
20574;DHT22;10445;50.216;7.912;2023-10-31T08:59:15;9.70;99.90
20574;DHT22;10445;50.216;7.912;2023-10-31T09:01:44;9.80;99.90
20574;DHT22;10445;50.216;7.912;2023-10-31T09:04:12;9.80;99.90
20574;DHT22;10445;50.216;7.912;2023-10-31T09:06:40;9.90;99.90
20574;DHT22;10445;50.216;7.912;2023-10-31T09:09:09;9.90;99.90
20574;DHT22;10445;50.216;7.912;2023-10-31T09:11:39;9.80;98.70
20574;DHT22;10445;50.216;7.912;2023-10-31T09:14:08;9.80;97.10
20574;DHT22;10445;50.216;7.912;2023-10-31T09:16:37;9.80;98.40
20574;DHT22;10445;50.216;7.912;2023-10-31T09:19:06;9.80;99.10
20574;DHT22;10445;50.216;7.912;2023-10-31T09:21:35;9.80;98.00
20574;DHT22;10445;50.216;7.912;2023-10-31T09:24:04;9.90;99.10
20574;DHT22;10445;50.216;7.912;2023-10-31T09:26:37;10.00;99.50
20574;DHT22;10445;50.216;7.912;2023-10-31T09:29:11;10.10;97.90
20574;DHT22;10445;50.216;7.912;2023-10-31T09:31:54;10.20;97.90
20574;DHT22;10445;50.216;7.912;2023-10-31T09:34:22;10.30;97.10
20574;DHT22;10445;50.216;7.912;2023-10-31T09:36:51;10.40;97.90
20574;DHT22;10445;50.216;7.912;2023-10-31T09:39:19;10.50;98.10
20574;DHT22;10445;50.216;7.912;2023-10-31T09:41:47;10.50;93.60
20574;DHT22;10445;50.216;7.912;2023-10-31T09:44:20;10.60;95.10
20574;DHT22;10445;50.216;7.912;2023-10-31T09:46:51;10.50;92.10
20574;DHT22;10445;50.216;7.912;2023-10-31T09:49:20;10.50;90.70
20574;DHT22;10445;50.216;7.912;2023-10-31T09:51:48;10.50;91.10
20574;DHT22;10445;50.216;7.912;2023-10-31T09:54:17;10.40;88.60
20574;DHT22;10445;50.216;7.912;2023-10-31T09:56:45;10.30;88.70
20574;DHT22;10445;50.216;7.912;2023-10-31T09:59:14;10.10;88.40
20574;DHT22;10445;50.216;7.912;2023-10-31T10:01:44;10.10;93.80
20574;DHT22;10445;50.216;7.912;2023-10-31T10:04:13;10.20;93.30
20574;DHT22;10445;50.216;7.912;2023-10-31T10:06:50;10.20;92.30
20574;DHT22;10445;50.216;7.912;2023-10-31T10:09:21;10.10;91.90
20574;DHT22;10445;50.216;7.912;2023-10-31T10:11:51;10.20;90.10
20574;DHT22;10445;50.216;7.912;2023-10-31T10:14:23;10.20;90.80
20574;DHT22;10445;50.216;7.912;2023-10-31T10:16:53;10.20;93.30
20574;DHT22;10445;50.216;7.912;2023-10-31T10:19:22;10.30;94.30
20574;DHT22;10445;50.216;7.912;2023-10-31T10:21:52;10.40;93.30
20574;DHT22;10445;50.216;7.912;2023-10-31T10:24:21;10.40;91.40
20574;DHT22;10445;50.216;7.912;2023-10-31T10:26:50;10.50;92.40
20574;DHT22;10445;50.216;7.912;2023-10-31T10:29:19;10.50;91.60
20574;DHT22;10445;50.216;7.912;2023-10-31T10:31:48;10.60;90.40
20574;DHT22;10445;50.216;7.912;2023-10-31T10:34:17;10.70;91.30
20574;DHT22;10445;50.216;7.912;2023-10-31T10:36:47;10.70;88.80
20574;DHT22;10445;50.216;7.912;2023-10-31T10:39:19;10.80;89.20
20574;DHT22;10445;50.216;7.912;2023-10-31T10:41:52;10.80;89.30
20574;DHT22;10445;50.216;7.912;2023-10-31T10:44:30;10.80;86.20
20574;DHT22;10445;50.216;7.912;2023-10-31T10:47:02;10.70;85.50
20574;DHT22;10445;50.216;7.912;2023-10-31T10:49:35;10.70;85.00
20574;DHT22;10445;50.216;7.912;2023-10-31T10:52:16;10.70;85.00
20574;DHT22;10445;50.216;7.912;2023-10-31T10:54:52;10.80;85.70
20574;DHT22;10445;50.216;7.912;2023-10-31T10:57:27;10.80;81.60
20574;DHT22;10445;50.216;7.912;2023-10-31T11:00:02;10.70;82.70
20574;DHT22;10445;50.216;7.912;2023-10-31T11:02:32;10.70;80.60
20574;DHT22;10445;50.216;7.912;2023-10-31T11:05:05;10.80;83.20
20574;DHT22;10445;50.216;7.912;2023-10-31T11:07:34;10.90;82.20
20574;DHT22;10445;50.216;7.912;2023-10-31T11:10:04;10.90;80.10
20574;DHT22;10445;50.216;7.912;2023-10-31T11:12:33;10.80;78.00
20574;DHT22;10445;50.216;7.912;2023-10-31T11:15:02;10.90;82.70
20574;DHT22;10445;50.216;7.912;2023-10-31T11:17:34;11.00;76.40
20574;DHT22;10445;50.216;7.912;2023-10-31T11:20:05;11.10;77.50
20574;DHT22;10445;50.216;7.912;2023-10-31T11:22:38;11.10;74.20
20574;DHT22;10445;50.216;7.912;2023-10-31T11:25:08;11.10;70.30
20574;DHT22;10445;50.216;7.912;2023-10-31T11:27:50;11.20;74.60
20574;DHT22;10445;50.216;7.912;2023-10-31T11:30:22;11.30;75.20
20574;DHT22;10445;50.216;7.912;2023-10-31T11:32:54;11.40;76.30
20574;DHT22;10445;50.216;7.912;2023-10-31T11:35:24;11.50;74.30
20574;DHT22;10445;50.216;7.912;2023-10-31T11:38:01;11.70;67.50
20574;DHT22;10445;50.216;7.912;2023-10-31T11:40:30;11.90;73.90
20574;DHT22;10445;50.216;7.912;2023-10-31T11:43:03;12.10;69.90
20574;DHT22;10445;50.216;7.912;2023-10-31T11:45:35;12.10;71.40
20574;DHT22;10445;50.216;7.912;2023-10-31T11:48:06;12.30;70.60
20574;DHT22;10445;50.216;7.912;2023-10-31T11:50:37;12.20;58.40
20574;DHT22;10445;50.216;7.912;2023-10-31T11:53:13;12.10;61.50
20574;DHT22;10445;50.216;7.912;2023-10-31T11:55:45;12.00;55.50
20574;DHT22;10445;50.216;7.912;2023-10-31T11:58:18;11.80;63.50
20574;DHT22;10445;50.216;7.912;2023-10-31T12:00:48;11.80;64.30
20574;DHT22;10445;50.216;7.912;2023-10-31T12:03:19;11.70;59.50
20574;DHT22;10445;50.216;7.912;2023-10-31T12:05:53;11.50;64.60
20574;DHT22;10445;50.216;7.912;2023-10-31T12:08:25;11.30;69.30
20574;DHT22;10445;50.216;7.912;2023-10-31T12:11:06;11.20;70.00
20574;DHT22;10445;50.216;7.912;2023-10-31T12:13:35;11.10;71.80
20574;DHT22;10445;50.216;7.912;2023-10-31T12:16:05;11.00;71.90
20574;DHT22;10445;50.216;7.912;2023-10-31T12:18:34;11.00;74.60
20574;DHT22;10445;50.216;7.912;2023-10-31T12:21:04;11.00;72.60
20574;DHT22;10445;50.216;7.912;2023-10-31T12:23:34;11.00;75.40
20574;DHT22;10445;50.216;7.912;2023-10-31T12:26:03;11.00;72.80
20574;DHT22;10445;50.216;7.912;2023-10-31T12:28:31;11.00;76.40
20574;DHT22;10445;50.216;7.912;2023-10-31T12:31:00;11.00;78.00
20574;DHT22;10445;50.216;7.912;2023-10-31T12:33:30;11.10;76.00
20574;DHT22;10445;50.216;7.912;2023-10-31T12:35:59;11.10;75.30
20574;DHT22;10445;50.216;7.912;2023-10-31T12:38:29;11.20;76.00
20574;DHT22;10445;50.216;7.912;2023-10-31T12:40:58;11.20;73.30
20574;DHT22;10445;50.216;7.912;2023-10-31T12:43:27;11.20;69.00
20574;DHT22;10445;50.216;7.912;2023-10-31T12:45:54;11.20;71.00
20574;DHT22;10445;50.216;7.912;2023-10-31T12:48:24;11.20;69.90
20574;DHT22;10445;50.216;7.912;2023-10-31T12:51:06;11.30;67.00
20574;DHT22;10445;50.216;7.912;2023-10-31T12:53:37;11.20;67.70
20574;DHT22;10445;50.216;7.912;2023-10-31T12:56:06;11.30;67.70
20574;DHT22;10445;50.216;7.912;2023-10-31T12:58:34;11.30;64.60
20574;DHT22;10445;50.216;7.912;2023-10-31T13:01:10;11.30;62.10
20574;DHT22;10445;50.216;7.912;2023-10-31T13:03:49;11.40;65.00
20574;DHT22;10445;50.216;7.912;2023-10-31T13:06:18;11.50;64.90
20574;DHT22;10445;50.216;7.912;2023-10-31T13:08:48;11.40;69.80
20574;DHT22;10445;50.216;7.912;2023-10-31T13:11:16;11.40;67.70
20574;DHT22;10445;50.216;7.912;2023-10-31T13:13:50;11.40;68.60
20574;DHT22;10445;50.216;7.912;2023-10-31T13:16:18;11.40;65.50
20574;DHT22;10445;50.216;7.912;2023-10-31T13:18:47;11.40;65.20
20574;DHT22;10445;50.216;7.912;2023-10-31T13:21:16;11.60;65.60
20574;DHT22;10445;50.216;7.912;2023-10-31T13:23:44;11.90;60.80
20574;DHT22;10445;50.216;7.912;2023-10-31T13:26:16;12.20;56.80
20574;DHT22;10445;50.216;7.912;2023-10-31T13:28:44;12.40;54.10
20574;DHT22;10445;50.216;7.912;2023-10-31T13:31:13;12.40;52.10
20574;DHT22;10445;50.216;7.912;2023-10-31T13:33:41;12.70;53.90
20574;DHT22;10445;50.216;7.912;2023-10-31T13:36:10;13.30;42.10
20574;DHT22;10445;50.216;7.912;2023-10-31T13:38:39;13.60;31.90
20574;DHT22;10445;50.216;7.912;2023-10-31T13:41:07;13.30;31.90
20574;DHT22;10445;50.216;7.912;2023-10-31T13:43:38;12.80;37.90
20574;DHT22;10445;50.216;7.912;2023-10-31T13:46:06;12.40;41.90
20574;DHT22;10445;50.216;7.912;2023-10-31T13:48:34;12.10;47.20
20574;DHT22;10445;50.216;7.912;2023-10-31T13:51:03;12.00;49.70
20574;DHT22;10445;50.216;7.912;2023-10-31T13:53:32;11.90;51.20
20574;DHT22;10445;50.216;7.912;2023-10-31T13:56:00;11.80;52.70
20574;DHT22;10445;50.216;7.912;2023-10-31T13:58:29;11.70;54.70
20574;DHT22;10445;50.216;7.912;2023-10-31T14:00:58;11.70;55.70
20574;DHT22;10445;50.216;7.912;2023-10-31T14:03:27;11.70;52.00
20574;DHT22;10445;50.216;7.912;2023-10-31T14:05:55;11.70;53.10
20574;DHT22;10445;50.216;7.912;2023-10-31T14:08:24;11.60;50.40
20574;DHT22;10445;50.216;7.912;2023-10-31T14:10:53;11.50;50.10
20574;DHT22;10445;50.216;7.912;2023-10-31T14:13:23;11.50;53.70
20574;DHT22;10445;50.216;7.912;2023-10-31T14:15:52;11.40;58.00
20574;DHT22;10445;50.216;7.912;2023-10-31T14:18:21;11.40;59.00
20574;DHT22;10445;50.216;7.912;2023-10-31T14:20:50;11.40;56.10
20574;DHT22;10445;50.216;7.912;2023-10-31T14:23:19;11.30;59.60
20574;DHT22;10445;50.216;7.912;2023-10-31T14:25:47;11.30;62.40
20574;DHT22;10445;50.216;7.912;2023-10-31T14:28:15;11.20;61.80
20574;DHT22;10445;50.216;7.912;2023-10-31T14:30:44;11.10;64.40
20574;DHT22;10445;50.216;7.912;2023-10-31T14:33:12;11.10;66.80
20574;DHT22;10445;50.216;7.912;2023-10-31T14:35:42;11.10;65.90
20574;DHT22;10445;50.216;7.912;2023-10-31T14:38:11;11.10;69.10
20574;DHT22;10445;50.216;7.912;2023-10-31T14:40:39;11.00;70.50
20574;DHT22;10445;50.216;7.912;2023-10-31T14:43:07;11.00;68.50
20574;DHT22;10445;50.216;7.912;2023-10-31T14:45:36;10.90;69.80
20574;DHT22;10445;50.216;7.912;2023-10-31T14:48:04;10.80;71.70
20574;DHT22;10445;50.216;7.912;2023-10-31T14:50:33;10.60;73.20
20574;DHT22;10445;50.216;7.912;2023-10-31T14:53:03;10.60;74.80
20574;DHT22;10445;50.216;7.912;2023-10-31T14:55:32;10.50;76.00
20574;DHT22;10445;50.216;7.912;2023-10-31T14:58:00;10.40;78.10
20574;DHT22;10445;50.216;7.912;2023-10-31T15:00:28;10.40;79.20
20574;DHT22;10445;50.216;7.912;2023-10-31T15:02:57;10.30;81.50
20574;DHT22;10445;50.216;7.912;2023-10-31T15:05:25;10.30;81.60
20574;DHT22;10445;50.216;7.912;2023-10-31T15:07:54;10.30;81.70
20574;DHT22;10445;50.216;7.912;2023-10-31T15:10:24;10.30;81.40
20574;DHT22;10445;50.216;7.912;2023-10-31T15:12:55;10.30;82.20
20574;DHT22;10445;50.216;7.912;2023-10-31T15:15:23;10.30;83.90
20574;DHT22;10445;50.216;7.912;2023-10-31T15:17:51;10.30;85.10
20574;DHT22;10445;50.216;7.912;2023-10-31T15:20:20;10.20;84.50
20574;DHT22;10445;50.216;7.912;2023-10-31T15:22:48;10.20;84.70
20574;DHT22;10445;50.216;7.912;2023-10-31T15:25:17;10.20;86.60
20574;DHT22;10445;50.216;7.912;2023-10-31T15:27:47;10.20;86.10
20574;DHT22;10445;50.216;7.912;2023-10-31T15:30:15;10.20;87.40
20574;DHT22;10445;50.216;7.912;2023-10-31T15:32:43;10.20;87.70
20574;DHT22;10445;50.216;7.912;2023-10-31T15:35:12;10.20;87.30
20574;DHT22;10445;50.216;7.912;2023-10-31T15:37:42;10.20;88.50
20574;DHT22;10445;50.216;7.912;2023-10-31T15:40:11;10.20;89.00
20574;DHT22;10445;50.216;7.912;2023-10-31T15:42:40;10.20;89.40
20574;DHT22;10445;50.216;7.912;2023-10-31T15:45:10;10.20;89.80
20574;DHT22;10445;50.216;7.912;2023-10-31T15:47:38;10.20;90.50
20574;DHT22;10445;50.216;7.912;2023-10-31T15:50:07;10.30;90.60
20574;DHT22;10445;50.216;7.912;2023-10-31T15:52:36;10.40;90.30
20574;DHT22;10445;50.216;7.912;2023-10-31T15:55:05;10.40;89.30
20574;DHT22;10445;50.216;7.912;2023-10-31T15:57:34;10.50;88.80
20574;DHT22;10445;50.216;7.912;2023-10-31T16:00:03;10.40;88.60
20574;DHT22;10445;50.216;7.912;2023-10-31T16:02:33;10.40;86.80
20574;DHT22;10445;50.216;7.912;2023-10-31T16:05:01;10.40;87.20
20574;DHT22;10445;50.216;7.912;2023-10-31T16:07:30;10.40;87.90
20574;DHT22;10445;50.216;7.912;2023-10-31T16:09:59;10.30;88.80
20574;DHT22;10445;50.216;7.912;2023-10-31T16:12:29;10.30;90.00
20574;DHT22;10445;50.216;7.912;2023-10-31T16:14:57;10.30;89.40
20574;DHT22;10445;50.216;7.912;2023-10-31T16:17:26;10.30;90.30
20574;DHT22;10445;50.216;7.912;2023-10-31T16:19:55;10.30;91.00
20574;DHT22;10445;50.216;7.912;2023-10-31T16:22:24;10.30;89.30
20574;DHT22;10445;50.216;7.912;2023-10-31T16:24:52;10.30;89.90
20574;DHT22;10445;50.216;7.912;2023-10-31T16:27:21;10.30;90.60
20574;DHT22;10445;50.216;7.912;2023-10-31T16:29:51;10.40;90.70
20574;DHT22;10445;50.216;7.912;2023-10-31T16:32:19;10.40;90.10
20574;DHT22;10445;50.216;7.912;2023-10-31T16:34:48;10.40;90.30
20574;DHT22;10445;50.216;7.912;2023-10-31T16:37:19;10.40;89.40
20574;DHT22;10445;50.216;7.912;2023-10-31T16:39:48;10.40;90.20
20574;DHT22;10445;50.216;7.912;2023-10-31T16:42:16;10.30;90.00
20574;DHT22;10445;50.216;7.912;2023-10-31T16:44:45;10.30;90.10
20574;DHT22;10445;50.216;7.912;2023-10-31T16:47:13;10.30;90.50
20574;DHT22;10445;50.216;7.912;2023-10-31T16:49:42;10.30;90.70
20574;DHT22;10445;50.216;7.912;2023-10-31T16:52:10;10.30;90.20
20574;DHT22;10445;50.216;7.912;2023-10-31T16:54:40;10.30;91.00
20574;DHT22;10445;50.216;7.912;2023-10-31T16:57:09;10.30;91.00
20574;DHT22;10445;50.216;7.912;2023-10-31T16:59:37;10.30;91.00
20574;DHT22;10445;50.216;7.912;2023-10-31T17:02:05;10.20;91.60
20574;DHT22;10445;50.216;7.912;2023-10-31T17:04:34;10.20;91.90
20574;DHT22;10445;50.216;7.912;2023-10-31T17:07:03;10.20;91.90
20574;DHT22;10445;50.216;7.912;2023-10-31T17:09:32;10.20;92.90
20574;DHT22;10445;50.216;7.912;2023-10-31T17:12:02;10.20;93.10
20574;DHT22;10445;50.216;7.912;2023-10-31T17:14:30;10.20;94.00
20574;DHT22;10445;50.216;7.912;2023-10-31T17:16:59;10.10;95.20
20574;DHT22;10445;50.216;7.912;2023-10-31T17:19:27;10.10;95.40
20574;DHT22;10445;50.216;7.912;2023-10-31T17:21:55;10.10;95.20
20574;DHT22;10445;50.216;7.912;2023-10-31T17:24:25;10.10;95.50
20574;DHT22;10445;50.216;7.912;2023-10-31T17:26:53;10.20;94.10
20574;DHT22;10445;50.216;7.912;2023-10-31T17:29:23;10.30;93.70
20574;DHT22;10445;50.216;7.912;2023-10-31T17:31:52;10.30;92.90
20574;DHT22;10445;50.216;7.912;2023-10-31T17:34:20;10.20;93.80
20574;DHT22;10445;50.216;7.912;2023-10-31T17:36:48;10.30;95.70
20574;DHT22;10445;50.216;7.912;2023-10-31T17:39:17;10.30;94.40
20574;DHT22;10445;50.216;7.912;2023-10-31T17:41:45;10.30;95.00
20574;DHT22;10445;50.216;7.912;2023-10-31T17:44:14;10.20;95.40
20574;DHT22;10445;50.216;7.912;2023-10-31T17:46:43;10.20;96.40
20574;DHT22;10445;50.216;7.912;2023-10-31T17:49:12;10.20;96.90
20574;DHT22;10445;50.216;7.912;2023-10-31T17:51:40;10.20;97.20
20574;DHT22;10445;50.216;7.912;2023-10-31T17:54:09;10.30;95.50
20574;DHT22;10445;50.216;7.912;2023-10-31T17:56:38;10.30;95.60
20574;DHT22;10445;50.216;7.912;2023-10-31T17:59:06;10.30;95.40
20574;DHT22;10445;50.216;7.912;2023-10-31T18:01:35;10.30;97.00
20574;DHT22;10445;50.216;7.912;2023-10-31T18:04:06;10.30;98.00
20574;DHT22;10445;50.216;7.912;2023-10-31T18:06:34;10.30;99.40
20574;DHT22;10445;50.216;7.912;2023-10-31T18:09:02;10.30;99.90
20574;DHT22;10445;50.216;7.912;2023-10-31T18:11:33;10.30;99.90
20574;DHT22;10445;50.216;7.912;2023-10-31T18:14:01;10.30;99.90
20574;DHT22;10445;50.216;7.912;2023-10-31T18:16:29;10.30;99.90
20574;DHT22;10445;50.216;7.912;2023-10-31T18:18:58;10.20;99.90
20574;DHT22;10445;50.216;7.912;2023-10-31T18:21:28;10.20;99.90
20574;DHT22;10445;50.216;7.912;2023-10-31T18:23:56;10.20;99.90
20574;DHT22;10445;50.216;7.912;2023-10-31T18:26:25;10.20;99.90
20574;DHT22;10445;50.216;7.912;2023-10-31T18:28:53;10.20;99.90
20574;DHT22;10445;50.216;7.912;2023-10-31T18:31:21;10.20;99.90
20574;DHT22;10445;50.216;7.912;2023-10-31T18:33:50;10.10;99.90
20574;DHT22;10445;50.216;7.912;2023-10-31T18:36:18;10.20;99.90
20574;DHT22;10445;50.216;7.912;2023-10-31T18:39:04;10.10;99.90
20574;DHT22;10445;50.216;7.912;2023-10-31T18:41:32;10.10;99.90
20574;DHT22;10445;50.216;7.912;2023-10-31T18:44:02;10.10;99.90
20574;DHT22;10445;50.216;7.912;2023-10-31T18:46:50;10.00;99.90
20574;DHT22;10445;50.216;7.912;2023-10-31T18:49:18;10.00;99.90
20574;DHT22;10445;50.216;7.912;2023-10-31T18:51:47;10.00;99.90
20574;DHT22;10445;50.216;7.912;2023-10-31T18:54:16;9.90;99.90
20574;DHT22;10445;50.216;7.912;2023-10-31T18:56:45;9.90;99.90
20574;DHT22;10445;50.216;7.912;2023-10-31T18:59:13;9.90;99.90
20574;DHT22;10445;50.216;7.912;2023-10-31T19:01:42;9.80;99.90
20574;DHT22;10445;50.216;7.912;2023-10-31T19:04:11;9.70;99.90
20574;DHT22;10445;50.216;7.912;2023-10-31T19:06:41;9.70;99.90
20574;DHT22;10445;50.216;7.912;2023-10-31T19:09:10;9.70;99.90
20574;DHT22;10445;50.216;7.912;2023-10-31T19:11:40;9.70;99.90
20574;DHT22;10445;50.216;7.912;2023-10-31T19:14:09;9.70;99.90
20574;DHT22;10445;50.216;7.912;2023-10-31T19:16:37;9.80;99.90
20574;DHT22;10445;50.216;7.912;2023-10-31T19:19:06;9.80;99.90
20574;DHT22;10445;50.216;7.912;2023-10-31T19:21:34;9.80;99.90
20574;DHT22;10445;50.216;7.912;2023-10-31T19:24:04;9.80;99.90
20574;DHT22;10445;50.216;7.912;2023-10-31T19:26:32;9.80;99.90
20574;DHT22;10445;50.216;7.912;2023-10-31T19:29:02;9.80;99.90
20574;DHT22;10445;50.216;7.912;2023-10-31T19:31:31;9.80;99.90
20574;DHT22;10445;50.216;7.912;2023-10-31T19:33:59;9.70;99.90
20574;DHT22;10445;50.216;7.912;2023-10-31T19:36:28;9.70;99.90
20574;DHT22;10445;50.216;7.912;2023-10-31T19:38:56;9.60;99.90
20574;DHT22;10445;50.216;7.912;2023-10-31T19:41:25;9.60;99.90
20574;DHT22;10445;50.216;7.912;2023-10-31T19:43:54;9.60;99.90
20574;DHT22;10445;50.216;7.912;2023-10-31T19:46:24;9.60;99.90
20574;DHT22;10445;50.216;7.912;2023-10-31T19:48:53;9.50;99.90
20574;DHT22;10445;50.216;7.912;2023-10-31T19:51:22;9.40;99.90
20574;DHT22;10445;50.216;7.912;2023-10-31T19:53:51;9.50;99.90
20574;DHT22;10445;50.216;7.912;2023-10-31T19:56:20;9.50;99.90
20574;DHT22;10445;50.216;7.912;2023-10-31T19:58:48;9.50;99.90
20574;DHT22;10445;50.216;7.912;2023-10-31T20:01:17;9.50;99.90
20574;DHT22;10445;50.216;7.912;2023-10-31T20:03:47;9.50;99.90
20574;DHT22;10445;50.216;7.912;2023-10-31T20:06:15;9.40;99.90
20574;DHT22;10445;50.216;7.912;2023-10-31T20:08:44;9.50;99.90
20574;DHT22;10445;50.216;7.912;2023-10-31T20:11:13;9.50;99.90
20574;DHT22;10445;50.216;7.912;2023-10-31T20:13:41;9.50;99.90
20574;DHT22;10445;50.216;7.912;2023-10-31T20:16:10;9.50;99.90
20574;DHT22;10445;50.216;7.912;2023-10-31T20:18:39;9.60;99.90
20574;DHT22;10445;50.216;7.912;2023-10-31T20:21:09;9.70;99.90
20574;DHT22;10445;50.216;7.912;2023-10-31T20:23:37;9.70;99.90
20574;DHT22;10445;50.216;7.912;2023-10-31T20:26:05;9.60;99.90
20574;DHT22;10445;50.216;7.912;2023-10-31T20:28:34;9.50;99.90
20574;DHT22;10445;50.216;7.912;2023-10-31T20:31:06;9.60;99.90
20574;DHT22;10445;50.216;7.912;2023-10-31T20:33:34;9.60;99.90
20574;DHT22;10445;50.216;7.912;2023-10-31T20:36:04;9.60;99.90
20574;DHT22;10445;50.216;7.912;2023-10-31T20:38:34;9.60;99.90
20574;DHT22;10445;50.216;7.912;2023-10-31T20:41:02;9.70;99.90
20574;DHT22;10445;50.216;7.912;2023-10-31T20:43:31;9.70;99.90
20574;DHT22;10445;50.216;7.912;2023-10-31T20:46:00;9.70;99.90
20574;DHT22;10445;50.216;7.912;2023-10-31T20:48:28;9.70;99.90
20574;DHT22;10445;50.216;7.912;2023-10-31T20:50:57;9.80;99.90
20574;DHT22;10445;50.216;7.912;2023-10-31T20:53:25;9.80;99.90
20574;DHT22;10445;50.216;7.912;2023-10-31T20:55:55;9.80;99.90
20574;DHT22;10445;50.216;7.912;2023-10-31T20:58:23;9.80;99.90
20574;DHT22;10445;50.216;7.912;2023-10-31T21:00:51;9.80;99.90
20574;DHT22;10445;50.216;7.912;2023-10-31T21:03:20;9.70;99.90
20574;DHT22;10445;50.216;7.912;2023-10-31T21:05:49;9.80;99.90
20574;DHT22;10445;50.216;7.912;2023-10-31T21:08:17;9.80;99.90
20574;DHT22;10445;50.216;7.912;2023-10-31T21:10:46;9.70;99.90
20574;DHT22;10445;50.216;7.912;2023-10-31T21:13:16;9.80;99.90
20574;DHT22;10445;50.216;7.912;2023-10-31T21:15:45;9.70;99.90
20574;DHT22;10445;50.216;7.912;2023-10-31T21:18:14;9.80;99.90
20574;DHT22;10445;50.216;7.912;2023-10-31T21:20:42;9.80;99.90
20574;DHT22;10445;50.216;7.912;2023-10-31T21:23:11;9.90;99.90
20574;DHT22;10445;50.216;7.912;2023-10-31T21:25:39;9.90;99.90
20574;DHT22;10445;50.216;7.912;2023-10-31T21:28:08;9.90;99.90
20574;DHT22;10445;50.216;7.912;2023-10-31T21:30:38;9.90;99.90
20574;DHT22;10445;50.216;7.912;2023-10-31T21:33:06;9.90;99.90
20574;DHT22;10445;50.216;7.912;2023-10-31T21:35:34;9.90;99.90
20574;DHT22;10445;50.216;7.912;2023-10-31T21:38:03;9.90;99.90
20574;DHT22;10445;50.216;7.912;2023-10-31T21:40:31;9.80;99.90
20574;DHT22;10445;50.216;7.912;2023-10-31T21:42:59;9.90;99.90
20574;DHT22;10445;50.216;7.912;2023-10-31T21:45:28;9.90;99.90
20574;DHT22;10445;50.216;7.912;2023-10-31T21:47:58;9.90;99.90
20574;DHT22;10445;50.216;7.912;2023-10-31T21:50:27;9.90;99.90
20574;DHT22;10445;50.216;7.912;2023-10-31T21:52:55;9.90;99.90
20574;DHT22;10445;50.216;7.912;2023-10-31T21:55:23;9.90;99.90
20574;DHT22;10445;50.216;7.912;2023-10-31T21:57:52;9.90;99.90
20574;DHT22;10445;50.216;7.912;2023-10-31T22:00:20;10.00;99.90
20574;DHT22;10445;50.216;7.912;2023-10-31T22:02:49;10.00;99.90
20574;DHT22;10445;50.216;7.912;2023-10-31T22:05:19;10.00;99.90
20574;DHT22;10445;50.216;7.912;2023-10-31T22:07:47;10.00;99.90
20574;DHT22;10445;50.216;7.912;2023-10-31T22:10:16;10.00;99.90
20574;DHT22;10445;50.216;7.912;2023-10-31T22:12:44;10.00;99.90
20574;DHT22;10445;50.216;7.912;2023-10-31T22:15:12;10.00;99.90
20574;DHT22;10445;50.216;7.912;2023-10-31T22:17:41;10.00;99.90